Long Pond, Pennsylvania
Current Conditions -  °F | °C
As of 7:53 PM on Wednesday 22 Oct 2014 (Local Time) from KMPO Reporting Station
Light Rain Light Rain  
Wind Chill: 42°   Ceiling: 1200
Heat Index: 48°   Visibility: 5mi
Dew Point: 44°   Wind: 15mph
Humidity: 86%   Direction: 350°N
Pressure: 29.9"   Gusts: 28mph
Location:  41.09°N, 75.44°W
Report Text: KMPO 222353Z AUTO 35013G24KT 5SM -RA BR OVC012 09/07 A2990 RMK AO2 SLP129 6//// T00890067 10100 20083 58003 TSNO PNO $
Loading
Personal Weather Stations






























Interactive Weather Map
Tropical Storm Tracking
New forecast layout! Learn more

10-Day Weather Forecast

Advertisements
Track Severe Weather on mobile